sensor_id;sensor_type;location;lat;lon;timestamp;P1;durP1;ratioP1;P2;durP2;ratioP2
70075;SDS011;63241;51.056;3.698;2023-04-10T00:01:09;15.90;;;12.47;;
70075;SDS011;63241;51.056;3.698;2023-04-10T00:03:37;15.72;;;12.15;;
70075;SDS011;63241;51.056;3.698;2023-04-10T00:06:06;13.45;;;11.60;;
70075;SDS011;63241;51.056;3.698;2023-04-10T00:08:34;15.48;;;11.08;;
70075;SDS011;63241;51.056;3.698;2023-04-10T00:11:02;14.58;;;11.18;;
70075;SDS011;63241;51.056;3.698;2023-04-10T00:13:29;17.37;;;11.50;;
70075;SDS011;63241;51.056;3.698;2023-04-10T00:15:58;19.27;;;11.40;;
70075;SDS011;63241;51.056;3.698;2023-04-10T00:18:26;14.47;;;11.35;;
70075;SDS011;63241;51.056;3.698;2023-04-10T00:20:53;12.68;;;10.28;;
70075;SDS011;63241;51.056;3.698;2023-04-10T00:23:21;15.80;;;10.72;;
70075;SDS011;63241;51.056;3.698;2023-04-10T00:25:49;13.43;;;10.45;;
70075;SDS011;63241;51.056;3.698;2023-04-10T00:28:16;11.85;;;9.93;;
70075;SDS011;63241;51.056;3.698;2023-04-10T00:30:44;12.23;;;9.85;;
70075;SDS011;63241;51.056;3.698;2023-04-10T00:33:12;13.15;;;9.65;;
70075;SDS011;63241;51.056;3.698;2023-04-10T00:35:40;12.70;;;8.85;;
70075;SDS011;63241;51.056;3.698;2023-04-10T00:38:07;21.55;;;9.50;;
70075;SDS011;63241;51.056;3.698;2023-04-10T00:40:35;12.63;;;9.30;;
70075;SDS011;63241;51.056;3.698;2023-04-10T00:43:03;11.57;;;9.68;;
70075;SDS011;63241;51.056;3.698;2023-04-10T00:45:30;11.60;;;8.95;;
70075;SDS011;63241;51.056;3.698;2023-04-10T00:47:58;11.50;;;9.18;;
70075;SDS011;63241;51.056;3.698;2023-04-10T00:50:26;11.57;;;8.88;;
70075;SDS011;63241;51.056;3.698;2023-04-10T00:52:53;12.05;;;9.00;;
70075;SDS011;63241;51.056;3.698;2023-04-10T00:55:22;15.35;;;9.30;;
70075;SDS011;63241;51.056;3.698;2023-04-10T00:57:50;11.80;;;8.90;;
70075;SDS011;63241;51.056;3.698;2023-04-10T01:00:18;11.18;;;8.60;;
70075;SDS011;63241;51.056;3.698;2023-04-10T01:02:46;11.15;;;8.83;;
70075;SDS011;63241;51.056;3.698;2023-04-10T01:05:14;12.28;;;8.40;;
70075;SDS011;63241;51.056;3.698;2023-04-10T01:10:25;13.00;;;9.00;;
70075;SDS011;63241;51.056;3.698;2023-04-10T01:13:00;11.50;;;8.98;;
70075;SDS011;63241;51.056;3.698;2023-04-10T01:15:27;10.70;;;8.95;;
70075;SDS011;63241;51.056;3.698;2023-04-10T01:18:00;12.65;;;9.28;;
70075;SDS011;63241;51.056;3.698;2023-04-10T01:20:30;10.15;;;8.10;;
70075;SDS011;63241;51.056;3.698;2023-04-10T01:25:40;12.98;;;9.30;;
70075;SDS011;63241;51.056;3.698;2023-04-10T01:28:35;11.88;;;8.60;;
70075;SDS011;63241;51.056;3.698;2023-04-10T01:31:12;11.85;;;8.58;;
70075;SDS011;63241;51.056;3.698;2023-04-10T01:33:44;12.25;;;8.10;;
70075;SDS011;63241;51.056;3.698;2023-04-10T01:36:14;11.90;;;8.75;;
70075;SDS011;63241;51.056;3.698;2023-04-10T01:38:49;11.28;;;9.10;;
70075;SDS011;63241;51.056;3.698;2023-04-10T01:41:19;11.35;;;8.45;;
70075;SDS011;63241;51.056;3.698;2023-04-10T01:43:50;12.68;;;8.65;;
70075;SDS011;63241;51.056;3.698;2023-04-10T01:46:19;12.68;;;8.35;;
70075;SDS011;63241;51.056;3.698;2023-04-10T01:48:48;10.08;;;8.00;;
70075;SDS011;63241;51.056;3.698;2023-04-10T01:51:17;10.55;;;8.40;;
70075;SDS011;63241;51.056;3.698;2023-04-10T01:53:46;11.35;;;8.03;;
70075;SDS011;63241;51.056;3.698;2023-04-10T01:56:14;12.35;;;8.55;;
70075;SDS011;63241;51.056;3.698;2023-04-10T01:58:42;10.03;;;8.05;;
70075;SDS011;63241;51.056;3.698;2023-04-10T02:01:16;10.63;;;8.28;;
70075;SDS011;63241;51.056;3.698;2023-04-10T02:03:46;9.85;;;8.45;;
70075;SDS011;63241;51.056;3.698;2023-04-10T02:06:19;11.88;;;8.43;;
70075;SDS011;63241;51.056;3.698;2023-04-10T02:09:14;9.23;;;7.78;;
70075;SDS011;63241;51.056;3.698;2023-04-10T02:11:50;10.58;;;8.15;;
70075;SDS011;63241;51.056;3.698;2023-04-10T02:14:22;12.07;;;7.47;;
70075;SDS011;63241;51.056;3.698;2023-04-10T02:19:22;9.40;;;7.83;;
70075;SDS011;63241;51.056;3.698;2023-04-10T02:21:51;11.05;;;8.28;;
70075;SDS011;63241;51.056;3.698;2023-04-10T02:24:21;10.18;;;7.83;;
70075;SDS011;63241;51.056;3.698;2023-04-10T02:26:50;10.63;;;7.72;;
70075;SDS011;63241;51.056;3.698;2023-04-10T02:29:18;11.45;;;8.28;;
70075;SDS011;63241;51.056;3.698;2023-04-10T02:31:46;10.38;;;7.90;;
70075;SDS011;63241;51.056;3.698;2023-04-10T02:34:15;11.65;;;7.60;;
70075;SDS011;63241;51.056;3.698;2023-04-10T02:36:43;12.82;;;8.33;;
70075;SDS011;63241;51.056;3.698;2023-04-10T02:39:11;12.47;;;8.18;;
70075;SDS011;63241;51.056;3.698;2023-04-10T02:41:38;11.93;;;7.60;;
70075;SDS011;63241;51.056;3.698;2023-04-10T02:44:06;11.50;;;8.03;;
70075;SDS011;63241;51.056;3.698;2023-04-10T02:46:34;10.60;;;8.05;;
70075;SDS011;63241;51.056;3.698;2023-04-10T02:49:01;10.32;;;7.97;;
70075;SDS011;63241;51.056;3.698;2023-04-10T02:51:29;9.65;;;7.47;;
70075;SDS011;63241;51.056;3.698;2023-04-10T02:54:00;11.50;;;8.05;;
70075;SDS011;63241;51.056;3.698;2023-04-10T02:56:27;11.28;;;6.65;;
70075;SDS011;63241;51.056;3.698;2023-04-10T02:58:55;11.50;;;7.65;;
70075;SDS011;63241;51.056;3.698;2023-04-10T03:01:23;8.83;;;7.55;;
70075;SDS011;63241;51.056;3.698;2023-04-10T03:03:51;9.35;;;6.97;;
70075;SDS011;63241;51.056;3.698;2023-04-10T03:06:19;8.93;;;7.17;;
70075;SDS011;63241;51.056;3.698;2023-04-10T03:08:48;9.43;;;7.47;;
70075;SDS011;63241;51.056;3.698;2023-04-10T03:11:16;10.38;;;7.42;;
70075;SDS011;63241;51.056;3.698;2023-04-10T03:13:44;12.60;;;7.65;;
70075;SDS011;63241;51.056;3.698;2023-04-10T03:16:12;9.85;;;7.15;;
70075;SDS011;63241;51.056;3.698;2023-04-10T03:18:40;9.83;;;7.30;;
70075;SDS011;63241;51.056;3.698;2023-04-10T03:21:07;11.10;;;7.17;;
70075;SDS011;63241;51.056;3.698;2023-04-10T03:23:35;10.35;;;7.78;;
70075;SDS011;63241;51.056;3.698;2023-04-10T03:26:03;9.78;;;7.35;;
70075;SDS011;63241;51.056;3.698;2023-04-10T03:28:30;10.95;;;7.67;;
70075;SDS011;63241;51.056;3.698;2023-04-10T03:30:58;9.90;;;6.92;;
70075;SDS011;63241;51.056;3.698;2023-04-10T03:33:26;10.48;;;7.22;;
70075;SDS011;63241;51.056;3.698;2023-04-10T03:35:54;9.78;;;7.20;;
70075;SDS011;63241;51.056;3.698;2023-04-10T03:38:22;9.65;;;7.53;;
70075;SDS011;63241;51.056;3.698;2023-04-10T03:40:49;9.05;;;7.25;;
70075;SDS011;63241;51.056;3.698;2023-04-10T03:43:18;10.10;;;7.20;;
70075;SDS011;63241;51.056;3.698;2023-04-10T03:45:46;9.53;;;7.40;;
70075;SDS011;63241;51.056;3.698;2023-04-10T03:48:14;10.05;;;7.00;;
70075;SDS011;63241;51.056;3.698;2023-04-10T03:50:42;12.70;;;7.42;;
70075;SDS011;63241;51.056;3.698;2023-04-10T03:53:10;9.83;;;7.33;;
70075;SDS011;63241;51.056;3.698;2023-04-10T03:55:38;9.03;;;7.28;;
70075;SDS011;63241;51.056;3.698;2023-04-10T03:58:06;10.82;;;7.08;;
70075;SDS011;63241;51.056;3.698;2023-04-10T04:00:33;10.95;;;7.35;;
70075;SDS011;63241;51.056;3.698;2023-04-10T04:03:01;8.53;;;6.95;;
70075;SDS011;63241;51.056;3.698;2023-04-10T04:05:31;9.83;;;7.28;;
70075;SDS011;63241;51.056;3.698;2023-04-10T04:07:59;9.88;;;7.47;;
70075;SDS011;63241;51.056;3.698;2023-04-10T04:10:26;10.70;;;6.95;;
70075;SDS011;63241;51.056;3.698;2023-04-10T04:12:54;8.30;;;6.62;;
70075;SDS011;63241;51.056;3.698;2023-04-10T04:15:22;7.97;;;6.67;;
70075;SDS011;63241;51.056;3.698;2023-04-10T04:17:49;11.85;;;7.28;;
70075;SDS011;63241;51.056;3.698;2023-04-10T04:20:17;9.88;;;7.25;;
70075;SDS011;63241;51.056;3.698;2023-04-10T04:22:45;9.68;;;7.40;;
70075;SDS011;63241;51.056;3.698;2023-04-10T04:25:13;9.98;;;7.12;;
70075;SDS011;63241;51.056;3.698;2023-04-10T04:27:40;9.75;;;7.10;;
70075;SDS011;63241;51.056;3.698;2023-04-10T04:30:08;9.53;;;7.25;;
70075;SDS011;63241;51.056;3.698;2023-04-10T04:32:36;8.43;;;7.03;;
70075;SDS011;63241;51.056;3.698;2023-04-10T04:35:04;9.53;;;7.60;;
70075;SDS011;63241;51.056;3.698;2023-04-10T04:37:32;9.63;;;7.55;;
70075;SDS011;63241;51.056;3.698;2023-04-10T04:40:00;10.40;;;7.78;;
70075;SDS011;63241;51.056;3.698;2023-04-10T04:42:28;10.68;;;6.92;;
70075;SDS011;63241;51.056;3.698;2023-04-10T04:44:56;9.05;;;7.15;;
70075;SDS011;63241;51.056;3.698;2023-04-10T04:47:24;9.30;;;7.35;;
70075;SDS011;63241;51.056;3.698;2023-04-10T04:49:51;8.70;;;7.28;;
70075;SDS011;63241;51.056;3.698;2023-04-10T04:52:19;9.70;;;7.03;;
70075;SDS011;63241;51.056;3.698;2023-04-10T04:54:46;9.55;;;7.28;;
70075;SDS011;63241;51.056;3.698;2023-04-10T04:57:14;10.03;;;7.12;;
70075;SDS011;63241;51.056;3.698;2023-04-10T04:59:42;11.55;;;7.42;;
70075;SDS011;63241;51.056;3.698;2023-04-10T05:02:11;11.12;;;7.58;;
70075;SDS011;63241;51.056;3.698;2023-04-10T05:04:39;10.93;;;7.75;;
70075;SDS011;63241;51.056;3.698;2023-04-10T05:07:06;11.18;;;7.17;;
70075;SDS011;63241;51.056;3.698;2023-04-10T05:09:34;9.40;;;7.75;;
70075;SDS011;63241;51.056;3.698;2023-04-10T05:12:02;10.08;;;7.03;;
70075;SDS011;63241;51.056;3.698;2023-04-10T05:14:29;8.55;;;7.00;;
70075;SDS011;63241;51.056;3.698;2023-04-10T05:16:57;8.63;;;6.67;;
70075;SDS011;63241;51.056;3.698;2023-04-10T05:19:25;9.83;;;6.92;;
70075;SDS011;63241;51.056;3.698;2023-04-10T05:21:52;10.23;;;7.25;;
70075;SDS011;63241;51.056;3.698;2023-04-10T05:24:20;10.65;;;7.33;;
70075;SDS011;63241;51.056;3.698;2023-04-10T05:26:48;9.70;;;7.28;;
70075;SDS011;63241;51.056;3.698;2023-04-10T05:29:15;8.00;;;6.92;;
70075;SDS011;63241;51.056;3.698;2023-04-10T05:31:43;10.43;;;8.05;;
70075;SDS011;63241;51.056;3.698;2023-04-10T05:34:11;10.93;;;7.45;;
70075;SDS011;63241;51.056;3.698;2023-04-10T05:36:38;11.53;;;7.50;;
70075;SDS011;63241;51.056;3.698;2023-04-10T05:39:06;10.45;;;7.62;;
70075;SDS011;63241;51.056;3.698;2023-04-10T05:41:34;10.35;;;7.53;;
70075;SDS011;63241;51.056;3.698;2023-04-10T05:44:01;10.25;;;7.42;;
70075;SDS011;63241;51.056;3.698;2023-04-10T05:46:29;12.80;;;7.40;;
70075;SDS011;63241;51.056;3.698;2023-04-10T05:48:57;11.55;;;7.70;;
70075;SDS011;63241;51.056;3.698;2023-04-10T05:51:24;11.25;;;8.20;;
70075;SDS011;63241;51.056;3.698;2023-04-10T05:53:52;10.82;;;7.83;;
70075;SDS011;63241;51.056;3.698;2023-04-10T05:56:20;11.10;;;7.62;;
70075;SDS011;63241;51.056;3.698;2023-04-10T05:58:47;11.53;;;7.67;;
70075;SDS011;63241;51.056;3.698;2023-04-10T06:01:15;10.63;;;7.83;;
70075;SDS011;63241;51.056;3.698;2023-04-10T06:03:43;10.10;;;7.92;;
70075;SDS011;63241;51.056;3.698;2023-04-10T06:06:10;11.93;;;8.18;;
70075;SDS011;63241;51.056;3.698;2023-04-10T06:08:38;10.48;;;7.67;;
70075;SDS011;63241;51.056;3.698;2023-04-10T06:11:06;12.30;;;8.23;;
70075;SDS011;63241;51.056;3.698;2023-04-10T06:13:33;10.85;;;8.30;;
70075;SDS011;63241;51.056;3.698;2023-04-10T06:16:01;11.28;;;8.00;;
70075;SDS011;63241;51.056;3.698;2023-04-10T06:18:29;11.10;;;8.15;;
70075;SDS011;63241;51.056;3.698;2023-04-10T06:20:56;11.03;;;8.15;;
70075;SDS011;63241;51.056;3.698;2023-04-10T06:23:31;12.23;;;8.43;;
70075;SDS011;63241;51.056;3.698;2023-04-10T06:25:55;10.30;;;7.58;;
70075;SDS011;63241;51.056;3.698;2023-04-10T06:28:23;10.18;;;7.97;;
70075;SDS011;63241;51.056;3.698;2023-04-10T06:30:50;10.72;;;8.13;;
70075;SDS011;63241;51.056;3.698;2023-04-10T06:33:18;11.93;;;7.40;;
70075;SDS011;63241;51.056;3.698;2023-04-10T06:35:46;11.18;;;7.85;;
70075;SDS011;63241;51.056;3.698;2023-04-10T06:38:15;10.95;;;8.10;;
70075;SDS011;63241;51.056;3.698;2023-04-10T06:40:43;13.15;;;8.70;;
70075;SDS011;63241;51.056;3.698;2023-04-10T06:43:11;11.80;;;8.35;;
70075;SDS011;63241;51.056;3.698;2023-04-10T06:45:38;11.78;;;8.13;;
70075;SDS011;63241;51.056;3.698;2023-04-10T06:48:06;10.43;;;7.75;;
70075;SDS011;63241;51.056;3.698;2023-04-10T06:50:34;9.63;;;7.53;;
70075;SDS011;63241;51.056;3.698;2023-04-10T06:53:01;8.88;;;7.53;;
70075;SDS011;63241;51.056;3.698;2023-04-10T06:55:29;10.50;;;7.75;;
70075;SDS011;63241;51.056;3.698;2023-04-10T06:57:57;12.63;;;7.00;;
70075;SDS011;63241;51.056;3.698;2023-04-10T07:00:24;8.80;;;6.72;;
70075;SDS011;63241;51.056;3.698;2023-04-10T07:02:52;9.58;;;7.50;;
70075;SDS011;63241;51.056;3.698;2023-04-10T07:05:20;10.53;;;8.05;;
70075;SDS011;63241;51.056;3.698;2023-04-10T07:07:48;8.90;;;6.80;;
70075;SDS011;63241;51.056;3.698;2023-04-10T07:10:16;9.70;;;7.10;;
70075;SDS011;63241;51.056;3.698;2023-04-10T07:12:43;8.60;;;6.75;;
70075;SDS011;63241;51.056;3.698;2023-04-10T07:15:11;10.28;;;7.00;;
70075;SDS011;63241;51.056;3.698;2023-04-10T07:17:39;9.40;;;7.33;;
70075;SDS011;63241;51.056;3.698;2023-04-10T07:20:07;10.03;;;7.37;;
70075;SDS011;63241;51.056;3.698;2023-04-10T07:22:35;9.55;;;6.85;;
70075;SDS011;63241;51.056;3.698;2023-04-10T07:25:03;7.65;;;6.35;;
70075;SDS011;63241;51.056;3.698;2023-04-10T07:27:32;9.45;;;6.67;;
70075;SDS011;63241;51.056;3.698;2023-04-10T07:29:59;11.18;;;6.70;;
70075;SDS011;63241;51.056;3.698;2023-04-10T07:32:27;8.98;;;6.70;;
70075;SDS011;63241;51.056;3.698;2023-04-10T07:34:55;8.58;;;6.72;;
70075;SDS011;63241;51.056;3.698;2023-04-10T07:37:22;7.35;;;6.55;;
70075;SDS011;63241;51.056;3.698;2023-04-10T07:39:50;8.23;;;6.60;;
70075;SDS011;63241;51.056;3.698;2023-04-10T07:42:18;11.03;;;7.40;;
70075;SDS011;63241;51.056;3.698;2023-04-10T07:44:46;11.40;;;7.92;;
70075;SDS011;63241;51.056;3.698;2023-04-10T07:47:13;7.92;;;6.65;;
70075;SDS011;63241;51.056;3.698;2023-04-10T07:49:41;10.32;;;6.50;;
70075;SDS011;63241;51.056;3.698;2023-04-10T07:52:08;8.78;;;5.72;;
70075;SDS011;63241;51.056;3.698;2023-04-10T07:54:36;9.33;;;6.70;;
70075;SDS011;63241;51.056;3.698;2023-04-10T07:57:04;7.20;;;6.33;;
70075;SDS011;63241;51.056;3.698;2023-04-10T07:59:32;7.95;;;6.60;;
70075;SDS011;63241;51.056;3.698;2023-04-10T08:02:00;7.72;;;6.17;;
70075;SDS011;63241;51.056;3.698;2023-04-10T08:04:27;10.43;;;6.95;;
70075;SDS011;63241;51.056;3.698;2023-04-10T08:06:55;8.78;;;6.78;;
70075;SDS011;63241;51.056;3.698;2023-04-10T08:09:23;10.08;;;6.90;;
70075;SDS011;63241;51.056;3.698;2023-04-10T08:11:50;7.62;;;6.35;;
70075;SDS011;63241;51.056;3.698;2023-04-10T08:14:18;9.75;;;6.55;;
70075;SDS011;63241;51.056;3.698;2023-04-10T08:16:45;8.70;;;6.08;;
70075;SDS011;63241;51.056;3.698;2023-04-10T08:19:13;8.25;;;6.30;;
70075;SDS011;63241;51.056;3.698;2023-04-10T08:21:41;8.40;;;6.80;;
70075;SDS011;63241;51.056;3.698;2023-04-10T08:24:08;8.15;;;6.22;;
70075;SDS011;63241;51.056;3.698;2023-04-10T08:26:36;8.93;;;6.95;;
70075;SDS011;63241;51.056;3.698;2023-04-10T08:29:04;10.55;;;6.53;;
70075;SDS011;63241;51.056;3.698;2023-04-10T08:31:31;7.12;;;6.30;;
70075;SDS011;63241;51.056;3.698;2023-04-10T08:33:59;9.15;;;6.50;;
70075;SDS011;63241;51.056;3.698;2023-04-10T08:36:28;7.35;;;6.12;;
70075;SDS011;63241;51.056;3.698;2023-04-10T08:38:56;9.05;;;6.67;;
70075;SDS011;63241;51.056;3.698;2023-04-10T08:41:24;9.93;;;6.67;;
70075;SDS011;63241;51.056;3.698;2023-04-10T08:43:51;6.62;;;5.72;;
70075;SDS011;63241;51.056;3.698;2023-04-10T08:46:20;9.80;;;6.28;;
70075;SDS011;63241;51.056;3.698;2023-04-10T08:48:56;8.93;;;6.28;;
70075;SDS011;63241;51.056;3.698;2023-04-10T08:51:31;8.15;;;6.08;;
70075;SDS011;63241;51.056;3.698;2023-04-10T08:54:09;7.53;;;5.95;;
70075;SDS011;63241;51.056;3.698;2023-04-10T08:56:39;10.15;;;5.72;;
70075;SDS011;63241;51.056;3.698;2023-04-10T08:59:08;6.90;;;5.75;;
70075;SDS011;63241;51.056;3.698;2023-04-10T09:01:36;6.40;;;5.72;;
70075;SDS011;63241;51.056;3.698;2023-04-10T09:04:05;7.42;;;5.65;;
70075;SDS011;63241;51.056;3.698;2023-04-10T09:06:33;7.37;;;6.33;;
70075;SDS011;63241;51.056;3.698;2023-04-10T09:09:01;9.40;;;5.85;;
70075;SDS011;63241;51.056;3.698;2023-04-10T09:14:25;7.95;;;5.75;;
70075;SDS011;63241;51.056;3.698;2023-04-10T09:17:09;8.38;;;6.03;;
70075;SDS011;63241;51.056;3.698;2023-04-10T09:19:42;10.40;;;6.58;;
70075;SDS011;63241;51.056;3.698;2023-04-10T09:22:11;8.08;;;6.08;;
70075;SDS011;63241;51.056;3.698;2023-04-10T09:24:40;9.00;;;6.17;;
70075;SDS011;63241;51.056;3.698;2023-04-10T09:27:09;7.37;;;5.80;;
70075;SDS011;63241;51.056;3.698;2023-04-10T09:35:05;7.97;;;5.50;;
70075;SDS011;63241;51.056;3.698;2023-04-10T09:37:35;6.90;;;5.80;;
70075;SDS011;63241;51.056;3.698;2023-04-10T09:40:03;7.00;;;5.60;;
70075;SDS011;63241;51.056;3.698;2023-04-10T09:42:33;7.85;;;5.30;;
70075;SDS011;63241;51.056;3.698;2023-04-10T09:45:04;7.83;;;5.70;;
70075;SDS011;63241;51.056;3.698;2023-04-10T09:47:32;7.05;;;5.47;;
70075;SDS011;63241;51.056;3.698;2023-04-10T09:50:01;9.85;;;5.25;;
70075;SDS011;63241;51.056;3.698;2023-04-10T09:55:00;6.30;;;5.70;;
70075;SDS011;63241;51.056;3.698;2023-04-10T09:57:34;6.78;;;5.20;;
70075;SDS011;63241;51.056;3.698;2023-04-10T10:00:03;6.30;;;5.35;;
70075;SDS011;63241;51.056;3.698;2023-04-10T10:02:34;6.20;;;4.90;;
70075;SDS011;63241;51.056;3.698;2023-04-10T10:05:04;7.12;;;5.17;;
70075;SDS011;63241;51.056;3.698;2023-04-10T10:07:33;6.37;;;4.90;;
70075;SDS011;63241;51.056;3.698;2023-04-10T10:10:01;9.65;;;5.17;;
70075;SDS011;63241;51.056;3.698;2023-04-10T10:15:22;6.58;;;5.10;;
70075;SDS011;63241;51.056;3.698;2023-04-10T10:18:09;7.42;;;5.35;;
70075;SDS011;63241;51.056;3.698;2023-04-10T10:20:41;6.58;;;4.15;;
70075;SDS011;63241;51.056;3.698;2023-04-10T10:23:11;6.12;;;4.65;;
70075;SDS011;63241;51.056;3.698;2023-04-10T10:25:42;7.08;;;4.60;;
70075;SDS011;63241;51.056;3.698;2023-04-10T10:28:12;5.95;;;4.15;;
70075;SDS011;63241;51.056;3.698;2023-04-10T10:30:41;6.12;;;4.90;;
70075;SDS011;63241;51.056;3.698;2023-04-10T10:33:10;7.12;;;4.45;;
70075;SDS011;63241;51.056;3.698;2023-04-10T10:35:39;5.85;;;4.72;;
70075;SDS011;63241;51.056;3.698;2023-04-10T10:38:08;8.53;;;4.62;;
70075;SDS011;63241;51.056;3.698;2023-04-10T10:45:57;7.12;;;4.30;;
70075;SDS011;63241;51.056;3.698;2023-04-10T10:48:26;9.63;;;4.77;;
70075;SDS011;63241;51.056;3.698;2023-04-10T10:50:55;6.80;;;4.65;;
70075;SDS011;63241;51.056;3.698;2023-04-10T10:53:37;5.45;;;4.47;;
70075;SDS011;63241;51.056;3.698;2023-04-10T10:58:54;9.55;;;4.65;;
70075;SDS011;63241;51.056;3.698;2023-04-10T11:01:23;7.22;;;4.37;;
70075;SDS011;63241;51.056;3.698;2023-04-10T11:03:51;5.75;;;3.98;;
70075;SDS011;63241;51.056;3.698;2023-04-10T11:06:19;5.30;;;4.20;;
70075;SDS011;63241;51.056;3.698;2023-04-10T11:24:57;8.13;;;6.90;;
70075;SDS011;63241;51.056;3.698;2023-04-10T11:27:36;8.55;;;6.78;;
70075;SDS011;63241;51.056;3.698;2023-04-10T11:30:26;7.42;;;6.62;;
70075;SDS011;63241;51.056;3.698;2023-04-10T11:32:55;12.37;;;7.30;;
70075;SDS011;63241;51.056;3.698;2023-04-10T11:35:25;7.95;;;6.67;;
70075;SDS011;63241;51.056;3.698;2023-04-10T11:38:08;17.62;;;7.83;;
70075;SDS011;63241;51.056;3.698;2023-04-10T11:40:53;10.88;;;8.30;;
70075;SDS011;63241;51.056;3.698;2023-04-10T11:43:22;10.58;;;8.45;;
70075;SDS011;63241;51.056;3.698;2023-04-10T11:45:49;10.78;;;8.83;;
70075;SDS011;63241;51.056;3.698;2023-04-10T11:48:26;11.90;;;8.83;;
70075;SDS011;63241;51.056;3.698;2023-04-10T11:50:55;11.45;;;8.53;;
70075;SDS011;63241;51.056;3.698;2023-04-10T11:53:24;12.20;;;8.50;;
70075;SDS011;63241;51.056;3.698;2023-04-10T11:55:53;10.30;;;8.83;;
70075;SDS011;63241;51.056;3.698;2023-04-10T11:58:22;13.22;;;9.98;;
70075;SDS011;63241;51.056;3.698;2023-04-10T12:00:57;11.45;;;8.93;;
70075;SDS011;63241;51.056;3.698;2023-04-10T12:03:38;12.58;;;9.30;;
70075;SDS011;63241;51.056;3.698;2023-04-10T12:06:09;11.05;;;9.55;;
70075;SDS011;63241;51.056;3.698;2023-04-10T12:08:39;13.43;;;10.18;;
70075;SDS011;63241;51.056;3.698;2023-04-10T12:11:10;14.60;;;10.40;;
70075;SDS011;63241;51.056;3.698;2023-04-10T12:13:39;15.98;;;10.93;;
70075;SDS011;63241;51.056;3.698;2023-04-10T12:16:07;16.75;;;12.07;;
70075;SDS011;63241;51.056;3.698;2023-04-10T12:18:36;15.25;;;12.75;;
70075;SDS011;63241;51.056;3.698;2023-04-10T12:21:06;19.30;;;12.70;;
70075;SDS011;63241;51.056;3.698;2023-04-10T12:23:35;15.23;;;12.07;;
70075;SDS011;63241;51.056;3.698;2023-04-10T12:26:10;16.25;;;12.25;;
70075;SDS011;63241;51.056;3.698;2023-04-10T12:28:35;16.60;;;12.55;;
70075;SDS011;63241;51.056;3.698;2023-04-10T12:31:04;17.42;;;12.28;;
70075;SDS011;63241;51.056;3.698;2023-04-10T12:33:31;15.32;;;11.85;;
70075;SDS011;63241;51.056;3.698;2023-04-10T12:35:59;13.45;;;11.35;;
70075;SDS011;63241;51.056;3.698;2023-04-10T12:38:42;14.65;;;11.95;;
70075;SDS011;63241;51.056;3.698;2023-04-10T12:41:10;14.73;;;10.88;;
70075;SDS011;63241;51.056;3.698;2023-04-10T12:43:39;15.00;;;11.70;;
70075;SDS011;63241;51.056;3.698;2023-04-10T12:46:22;18.35;;;11.85;;
70075;SDS011;63241;51.056;3.698;2023-04-10T12:48:40;12.60;;;11.22;;
70075;SDS011;63241;51.056;3.698;2023-04-10T12:51:08;13.72;;;10.13;;
70075;SDS011;63241;51.056;3.698;2023-04-10T12:53:46;13.85;;;11.05;;
70075;SDS011;63241;51.056;3.698;2023-04-10T12:56:12;12.78;;;11.08;;
70075;SDS011;63241;51.056;3.698;2023-04-10T12:58:39;12.40;;;9.88;;
70075;SDS011;63241;51.056;3.698;2023-04-10T13:01:08;13.95;;;9.75;;
70075;SDS011;63241;51.056;3.698;2023-04-10T13:03:36;13.40;;;9.48;;
70075;SDS011;63241;51.056;3.698;2023-04-10T13:06:04;12.33;;;9.43;;
70075;SDS011;63241;51.056;3.698;2023-04-10T13:08:35;11.08;;;9.90;;
70075;SDS011;63241;51.056;3.698;2023-04-10T13:11:03;11.12;;;10.00;;
70075;SDS011;63241;51.056;3.698;2023-04-10T13:13:32;12.75;;;10.32;;
70075;SDS011;63241;51.056;3.698;2023-04-10T13:16:00;11.30;;;9.75;;
70075;SDS011;63241;51.056;3.698;2023-04-10T13:18:28;12.60;;;9.50;;
70075;SDS011;63241;51.056;3.698;2023-04-10T13:20:55;11.53;;;10.05;;
70075;SDS011;63241;51.056;3.698;2023-04-10T13:23:23;12.03;;;8.83;;
70075;SDS011;63241;51.056;3.698;2023-04-10T13:25:51;13.62;;;8.70;;
70075;SDS011;63241;51.056;3.698;2023-04-10T13:28:18;10.70;;;8.45;;
70075;SDS011;63241;51.056;3.698;2023-04-10T13:30:46;10.28;;;8.20;;
70075;SDS011;63241;51.056;3.698;2023-04-10T13:33:14;11.43;;;8.08;;
70075;SDS011;63241;51.056;3.698;2023-04-10T13:35:41;9.43;;;7.87;;
70075;SDS011;63241;51.056;3.698;2023-04-10T13:38:09;9.20;;;7.53;;
70075;SDS011;63241;51.056;3.698;2023-04-10T13:40:37;8.68;;;7.40;;
70075;SDS011;63241;51.056;3.698;2023-04-10T13:43:04;9.23;;;7.45;;
70075;SDS011;63241;51.056;3.698;2023-04-10T13:45:32;7.00;;;6.17;;
70075;SDS011;63241;51.056;3.698;2023-04-10T13:48:00;7.67;;;6.35;;
70075;SDS011;63241;51.056;3.698;2023-04-10T13:50:28;9.00;;;6.75;;
70075;SDS011;63241;51.056;3.698;2023-04-10T13:52:56;8.35;;;6.17;;
70075;SDS011;63241;51.056;3.698;2023-04-10T13:55:23;8.35;;;6.28;;
70075;SDS011;63241;51.056;3.698;2023-04-10T13:57:51;7.42;;;6.65;;
70075;SDS011;63241;51.056;3.698;2023-04-10T14:00:19;7.62;;;6.78;;
70075;SDS011;63241;51.056;3.698;2023-04-10T14:02:46;9.48;;;7.72;;
70075;SDS011;63241;51.056;3.698;2023-04-10T14:05:14;16.07;;;9.38;;
70075;SDS011;63241;51.056;3.698;2023-04-10T14:07:42;21.62;;;10.65;;
70075;SDS011;63241;51.056;3.698;2023-04-10T14:10:10;12.18;;;10.38;;
70075;SDS011;63241;51.056;3.698;2023-04-10T14:12:37;13.58;;;10.80;;
70075;SDS011;63241;51.056;3.698;2023-04-10T14:15:05;16.45;;;12.37;;
70075;SDS011;63241;51.056;3.698;2023-04-10T14:17:33;22.22;;;13.58;;
70075;SDS011;63241;51.056;3.698;2023-04-10T14:20:01;22.80;;;14.53;;
70075;SDS011;63241;51.056;3.698;2023-04-10T14:22:29;37.10;;;16.67;;
70075;SDS011;63241;51.056;3.698;2023-04-10T14:24:57;35.15;;;17.27;;
70075;SDS011;63241;51.056;3.698;2023-04-10T14:27:24;35.05;;;19.10;;
70075;SDS011;63241;51.056;3.698;2023-04-10T14:29:52;30.82;;;17.02;;
70075;SDS011;63241;51.056;3.698;2023-04-10T14:32:20;31.15;;;17.62;;
70075;SDS011;63241;51.056;3.698;2023-04-10T14:34:48;39.38;;;20.32;;
70075;SDS011;63241;51.056;3.698;2023-04-10T14:37:16;40.10;;;20.05;;
70075;SDS011;63241;51.056;3.698;2023-04-10T14:39:44;52.45;;;22.10;;
70075;SDS011;63241;51.056;3.698;2023-04-10T14:42:11;46.80;;;21.20;;
70075;SDS011;63241;51.056;3.698;2023-04-10T14:44:39;52.38;;;22.70;;
70075;SDS011;63241;51.056;3.698;2023-04-10T14:47:06;40.92;;;20.05;;
70075;SDS011;63241;51.056;3.698;2023-04-10T14:49:35;53.95;;;19.65;;
70075;SDS011;63241;51.056;3.698;2023-04-10T14:52:03;44.20;;;19.50;;
70075;SDS011;63241;51.056;3.698;2023-04-10T14:54:30;59.40;;;23.55;;
70075;SDS011;63241;51.056;3.698;2023-04-10T14:56:58;61.68;;;23.38;;
70075;SDS011;63241;51.056;3.698;2023-04-10T14:59:26;47.75;;;21.48;;
70075;SDS011;63241;51.056;3.698;2023-04-10T15:01:54;61.10;;;24.35;;
70075;SDS011;63241;51.056;3.698;2023-04-10T15:04:22;72.42;;;26.33;;
70075;SDS011;63241;51.056;3.698;2023-04-10T15:06:49;75.35;;;28.12;;
70075;SDS011;63241;51.056;3.698;2023-04-10T15:09:17;76.75;;;27.07;;
70075;SDS011;63241;51.056;3.698;2023-04-10T15:11:45;71.65;;;28.10;;
70075;SDS011;63241;51.056;3.698;2023-04-10T15:14:12;59.20;;;24.32;;
70075;SDS011;63241;51.056;3.698;2023-04-10T15:16:40;62.60;;;24.30;;
70075;SDS011;63241;51.056;3.698;2023-04-10T15:19:08;58.80;;;23.10;;
70075;SDS011;63241;51.056;3.698;2023-04-10T15:21:35;64.72;;;25.27;;
70075;SDS011;63241;51.056;3.698;2023-04-10T15:24:03;52.15;;;21.82;;
70075;SDS011;63241;51.056;3.698;2023-04-10T15:26:31;37.13;;;17.25;;
70075;SDS011;63241;51.056;3.698;2023-04-10T15:28:59;35.05;;;16.62;;
70075;SDS011;63241;51.056;3.698;2023-04-10T15:31:26;51.98;;;18.45;;
70075;SDS011;63241;51.056;3.698;2023-04-10T15:33:54;39.27;;;15.53;;